Roaring Spring, Pennsylvania
Current Conditions -  °F | °C
As of 2:53 AM on Sunday 26 Oct 2014 (Local Time) from KAOO Reporting Station
Clear Clear  
Wind Chill: 12°   Ceiling: Unl
Heat Index: 12°   Visibility: 10mi
Dew Point:   Wind: 14mph
Humidity: 47%   Direction: 320°NW
Pressure: 29.74"   Gusts: NA
Location:  40.34°N, 78.39°W
Report Text: KAOO 260653Z AUTO 32012KT 10SM CLR 12/01 A2974 RMK AO2 SLP066 T01220011
Loading
Personal Weather Stations






























Interactive Weather Map
Tropical Storm Tracking
New forecast layout! Learn more

10-Day Weather Forecast

Advertisements
Track Severe Weather on mobile